createdAt,value
2019-01-15T00:01:22.120Z,1.87
2019-01-15T00:03:52.361Z,1.80
2019-01-15T00:06:23.842Z,1.90
2019-01-15T00:08:54.049Z,1.83
2019-01-15T00:11:24.847Z,1.90
2019-01-15T00:13:55.258Z,1.73
2019-01-15T00:16:25.661Z,1.80
2019-01-15T00:18:56.086Z,2.10
2019-01-15T00:21:26.546Z,1.80
2019-01-15T00:23:56.874Z,2.30
2019-01-15T00:26:27.330Z,1.90
2019-01-15T00:28:57.889Z,2.10
2019-01-15T00:31:28.442Z,2.10
2019-01-15T00:33:58.849Z,1.80
2019-01-15T00:36:29.170Z,1.93
2019-01-15T00:38:59.790Z,1.93
2019-01-15T00:41:30.354Z,1.63
2019-01-15T00:44:00.973Z,2.00
2019-01-15T00:46:32.053Z,1.87
2019-01-15T00:49:02.774Z,1.80
2019-01-15T00:51:33.550Z,1.80
2019-01-15T00:54:04.581Z,1.80
2019-01-15T00:56:35.247Z,1.80
2019-01-15T00:59:05.925Z,2.00
2019-01-15T01:01:36.613Z,1.73
2019-01-15T01:04:07.339Z,1.63
2019-01-15T01:06:37.954Z,1.90
2019-01-15T01:09:11.110Z,1.70
2019-01-15T01:11:41.887Z,1.90
2019-01-15T01:14:12.606Z,1.87
2019-01-15T01:16:43.429Z,1.70
2019-01-15T01:19:14.501Z,1.70
2019-01-15T01:21:45.481Z,1.70
2019-01-15T01:24:16.186Z,2.00
2019-01-15T01:26:47.155Z,1.90
2019-01-15T01:29:17.757Z,1.87
2019-01-15T01:31:48.332Z,1.70
2019-01-15T01:34:19.088Z,1.90
2019-01-15T01:36:49.825Z,1.80
2019-01-15T01:39:20.498Z,2.00
2019-01-15T01:41:51.275Z,2.10
2019-01-15T01:44:21.854Z,1.50
2019-01-15T01:46:52.384Z,1.93
2019-01-15T01:49:22.994Z,1.80
2019-01-15T01:51:53.500Z,2.00
2019-01-15T01:54:24.082Z,2.00
2019-01-15T01:56:54.591Z,2.10
2019-01-15T01:59:25.202Z,1.70
2019-01-15T02:01:55.889Z,1.80
2019-01-15T02:04:26.537Z,1.80
2019-01-15T02:06:57.262Z,1.60
2019-01-15T02:09:28.109Z,1.87
2019-01-15T02:11:58.586Z,1.70
2019-01-15T02:14:29.319Z,1.70
2019-01-15T02:16:59.524Z,1.90
2019-01-15T02:19:30.031Z,1.80
2019-01-15T02:22:00.477Z,1.63
2019-01-15T02:24:31.067Z,1.83
2019-01-15T02:27:02.891Z,1.83
2019-01-15T02:29:33.345Z,2.07
2019-01-15T02:32:03.788Z,1.90
2019-01-15T02:34:34.306Z,1.97
2019-01-15T02:37:04.545Z,1.80
2019-01-15T02:39:35.105Z,1.90
2019-01-15T02:42:06.026Z,1.83
2019-01-15T02:44:37.051Z,1.90
2019-01-15T02:47:07.819Z,1.50
2019-01-15T02:49:38.382Z,1.80
2019-01-15T02:52:08.997Z,1.70
2019-01-15T02:54:39.615Z,1.80
2019-01-15T02:57:10.278Z,1.97
2019-01-15T02:59:41.382Z,1.80
2019-01-15T03:02:12.001Z,1.90
2019-01-15T03:04:42.674Z,1.57
2019-01-15T03:07:13.407Z,1.80
2019-01-15T03:09:44.097Z,1.70
2019-01-15T03:12:15.269Z,1.80
2019-01-15T03:14:45.882Z,1.60
2019-01-15T03:17:16.453Z,1.67
2019-01-15T03:19:47.090Z,1.50
2019-01-15T03:22:17.821Z,1.70
2019-01-15T03:24:48.737Z,1.70
2019-01-15T03:27:19.338Z,1.67
2019-01-15T03:29:50.056Z,1.77
2019-01-15T03:32:20.778Z,1.60
2019-01-15T03:34:51.942Z,1.67
2019-01-15T03:37:22.654Z,1.40
2019-01-15T03:39:53.138Z,1.53
2019-01-15T03:42:23.627Z,1.40
2019-01-15T03:44:55.893Z,1.47
2019-01-15T03:47:26.603Z,1.60
2019-01-15T03:49:57.251Z,1.60
2019-01-15T03:52:27.990Z,1.60
2019-01-15T03:54:58.543Z,1.60
2019-01-15T03:57:29.117Z,1.40
2019-01-15T03:59:59.712Z,1.80
2019-01-15T04:02:30.458Z,1.53
2019-01-15T04:05:01.178Z,1.33
2019-01-15T04:07:33.089Z,1.60
2019-01-15T04:10:04.037Z,1.67
2019-01-15T04:12:34.553Z,1.70
2019-01-15T04:15:06.777Z,1.70
2019-01-15T04:17:37.439Z,1.50
2019-01-15T04:20:10.722Z,1.20
2019-01-15T04:22:41.430Z,1.80
2019-01-15T04:25:12.658Z,1.60
2019-01-15T04:27:43.225Z,1.57
2019-01-15T04:30:18.962Z,1.70
2019-01-15T04:32:49.561Z,1.50
2019-01-15T04:35:21.228Z,1.70
2019-01-15T04:37:51.937Z,1.50
2019-01-15T04:40:22.977Z,1.57
2019-01-15T04:42:53.524Z,1.70
2019-01-15T04:45:25.297Z,1.53
2019-01-15T04:47:55.874Z,1.57
2019-01-15T04:50:26.529Z,1.57
2019-01-15T04:53:03.345Z,1.40
2019-01-15T04:55:33.949Z,1.47
2019-01-15T04:58:05.638Z,1.53
2019-01-15T05:00:36.171Z,1.70
2019-01-15T05:03:11.628Z,1.63
2019-01-15T05:05:42.283Z,1.60
2019-01-15T05:08:13.084Z,1.50
2019-01-15T05:10:43.843Z,1.53
2019-01-15T05:13:14.742Z,1.40
2019-01-15T05:15:45.436Z,1.60
2019-01-15T05:18:16.025Z,1.60
2019-01-15T05:20:46.662Z,1.40
2019-01-15T05:23:17.595Z,1.53
2019-01-15T05:25:48.159Z,1.40
2019-01-15T05:28:19.634Z,1.50
2019-01-15T05:30:50.914Z,1.60
2019-01-15T05:33:21.615Z,1.50
2019-01-15T05:35:52.198Z,1.40
2019-01-15T05:38:22.905Z,1.70
2019-01-15T05:40:53.507Z,1.53
2019-01-15T05:43:23.917Z,1.57
2019-01-15T05:45:54.546Z,1.40
2019-01-15T05:48:31.791Z,1.20
2019-01-15T05:51:09.607Z,1.40
2019-01-15T05:53:40.840Z,1.40
2019-01-15T05:56:11.335Z,1.50
2019-01-15T05:58:41.594Z,1.60
2019-01-15T06:01:12.206Z,1.60
2019-01-15T06:03:42.387Z,1.57
2019-01-15T06:06:13.034Z,1.60
2019-01-15T06:08:43.208Z,1.60
2019-01-15T06:11:28.428Z,1.73
2019-01-15T06:13:58.797Z,1.50
2019-01-15T06:16:29.434Z,1.83
2019-01-15T06:18:59.841Z,1.80
2019-01-15T06:21:30.565Z,1.70
2019-01-15T06:24:00.870Z,1.70
2019-01-15T06:26:31.478Z,1.67
2019-01-15T06:29:01.826Z,1.53
2019-01-15T06:31:32.342Z,1.70
2019-01-15T06:34:02.506Z,1.87
2019-01-15T06:36:33.029Z,1.67
2019-01-15T06:39:04.557Z,1.73
2019-01-15T06:41:34.940Z,1.70
2019-01-15T06:44:05.793Z,1.50
2019-01-15T06:46:36.438Z,1.60
2019-01-15T06:49:07.249Z,1.70
2019-01-15T06:51:39.818Z,1.70
2019-01-15T06:54:10.457Z,1.83
2019-01-15T06:56:41.544Z,1.60
2019-01-15T06:59:12.710Z,1.63
2019-01-15T07:01:43.433Z,1.80
2019-01-15T07:04:14.028Z,1.80
2019-01-15T07:06:44.741Z,1.70
2019-01-15T07:09:15.658Z,1.90
2019-01-15T07:11:46.209Z,1.90
2019-01-15T07:14:16.937Z,1.63
2019-01-15T07:16:47.861Z,1.80
2019-01-15T07:19:18.546Z,1.70
2019-01-15T07:21:49.272Z,1.60
2019-01-15T07:24:20.311Z,1.70
2019-01-15T07:26:51.010Z,1.73
2019-01-15T07:29:21.766Z,1.90
2019-01-15T07:31:52.304Z,1.80
2019-01-15T07:34:22.849Z,1.67
2019-01-15T07:36:53.427Z,1.70
2019-01-15T07:39:24.142Z,1.43
2019-01-15T07:41:54.701Z,1.77
2019-01-15T07:44:25.519Z,1.93
2019-01-15T07:46:56.681Z,2.13
2019-01-15T07:49:27.385Z,1.70
2019-01-15T07:51:58.219Z,1.60
2019-01-15T07:54:28.777Z,1.57
2019-01-15T07:56:59.602Z,1.80
2019-01-15T07:59:30.279Z,1.70
2019-01-15T08:02:01.482Z,1.80
2019-01-15T08:04:32.225Z,1.70
2019-01-15T08:07:02.789Z,1.50
2019-01-15T08:09:33.518Z,1.80
2019-01-15T08:12:04.140Z,1.80
2019-01-15T08:14:34.859Z,1.50
2019-01-15T08:17:05.196Z,1.60
2019-01-15T08:19:35.633Z,1.70
2019-01-15T08:22:05.810Z,1.60
2019-01-15T08:24:36.391Z,1.60
2019-01-15T08:27:06.882Z,1.80
2019-01-15T08:29:37.462Z,1.87
2019-01-15T08:32:07.713Z,1.63
2019-01-15T08:34:38.229Z,1.60
2019-01-15T08:37:09.399Z,1.50
2019-01-15T08:39:39.942Z,1.60
2019-01-15T08:42:10.131Z,1.50
2019-01-15T08:44:40.830Z,1.77
2019-01-15T08:47:11.370Z,1.40
2019-01-15T08:49:42.550Z,1.57
2019-01-15T08:52:13.098Z,1.43
2019-01-15T08:54:43.862Z,1.47
2019-01-15T08:57:14.630Z,1.30
2019-01-15T08:59:45.322Z,1.40
2019-01-15T09:02:16.122Z,1.60
2019-01-15T09:04:46.717Z,1.50
2019-01-15T09:07:17.572Z,1.40
2019-01-15T09:09:48.368Z,1.50
2019-01-15T09:12:18.933Z,1.60
2019-01-15T09:14:49.609Z,1.60
2019-01-15T09:17:20.023Z,1.50
2019-01-15T09:19:50.695Z,1.40
2019-01-15T09:22:21.006Z,1.50
2019-01-15T09:24:51.551Z,1.57
2019-01-15T09:27:21.873Z,1.60
2019-01-15T09:29:53.393Z,1.47
2019-01-15T09:32:24.866Z,1.73
2019-01-15T09:34:55.342Z,1.60
2019-01-15T09:37:25.816Z,1.80
2019-01-15T09:39:56.328Z,1.50
2019-01-15T09:42:26.683Z,1.40
2019-01-15T09:44:58.527Z,1.63
2019-01-15T09:47:28.774Z,1.67
2019-01-15T09:49:59.238Z,1.80
2019-01-15T09:52:29.494Z,1.50
2019-01-15T09:55:00.094Z,1.70
2019-01-15T09:57:30.418Z,1.47
2019-01-15T10:00:00.982Z,1.47
2019-01-15T10:02:31.342Z,1.73
2019-01-15T10:05:01.857Z,1.50
2019-01-15T10:07:32.029Z,1.73
2019-01-15T10:10:02.618Z,1.80
2019-01-15T10:12:32.864Z,1.50
2019-01-15T10:15:03.410Z,1.50
2019-01-15T10:17:33.668Z,1.60
2019-01-15T10:20:04.871Z,1.43
2019-01-15T10:22:35.102Z,1.60
2019-01-15T10:25:07.010Z,1.60
2019-01-15T10:27:37.498Z,1.60
2019-01-15T10:30:16.747Z,1.70
2019-01-15T10:32:56.067Z,1.90
2019-01-15T10:35:52.646Z,1.47
2019-01-15T10:38:24.465Z,1.80
2019-01-15T10:40:56.950Z,1.50
2019-01-15T10:43:29.544Z,1.67
2019-01-15T10:46:00.191Z,1.87
2019-01-15T10:48:30.686Z,1.70
2019-01-15T10:51:01.513Z,1.77
2019-01-15T10:53:32.233Z,1.60
2019-01-15T10:56:02.877Z,1.63
2019-01-15T10:58:33.589Z,1.70
2019-01-15T11:01:05.963Z,1.50
2019-01-15T11:03:36.631Z,1.70
2019-01-15T11:06:07.313Z,1.60
2019-01-15T11:08:37.934Z,1.60
2019-01-15T11:11:08.649Z,1.67
2019-01-15T11:13:39.242Z,1.50
2019-01-15T11:16:09.764Z,1.80
2019-01-15T11:18:40.459Z,1.53
2019-01-15T11:21:11.310Z,1.70
2019-01-15T11:23:42.045Z,1.70
2019-01-15T11:26:12.741Z,1.53
2019-01-15T11:28:43.399Z,1.50
2019-01-15T11:31:14.086Z,1.60
2019-01-15T11:33:44.741Z,1.70
2019-01-15T11:36:15.458Z,1.72
2019-01-15T11:38:46.164Z,1.73
2019-01-15T11:41:17.093Z,1.53
2019-01-15T11:43:47.761Z,1.67
2019-01-15T11:46:18.476Z,1.57
2019-01-15T11:48:49.182Z,1.80
2019-01-15T11:51:19.718Z,1.80
2019-01-15T11:53:50.398Z,2.00
2019-01-15T11:56:21.029Z,1.72
2019-01-15T11:58:52.040Z,1.53
2019-01-15T12:01:41.746Z,1.77
2019-01-15T12:04:28.393Z,1.98
2019-01-15T12:07:20.411Z,1.72
2019-01-15T12:10:19.761Z,2.02
2019-01-15T12:13:07.551Z,1.80
2019-01-15T12:15:49.450Z,2.00
2019-01-15T12:18:38.782Z,1.90
2019-01-15T12:21:31.566Z,2.00
2019-01-15T12:24:19.367Z,2.08
2019-01-15T12:27:14.587Z,1.80
2019-01-15T12:29:55.414Z,1.80
2019-01-15T12:32:53.498Z,2.00
2019-01-15T12:35:48.675Z,2.17
2019-01-15T12:38:41.265Z,2.02
2019-01-15T12:41:29.022Z,2.02
2019-01-15T12:44:08.317Z,2.00
2019-01-15T12:47:10.047Z,1.97
2019-01-15T12:50:14.625Z,2.10
2019-01-15T12:53:03.116Z,2.20
2019-01-15T12:55:47.830Z,2.10
2019-01-15T12:58:35.561Z,2.20
2019-01-15T13:01:26.964Z,2.20
2019-01-15T13:04:25.686Z,2.30
2019-01-15T13:07:20.982Z,2.40
2019-01-15T13:10:02.522Z,2.03
2019-01-15T13:12:49.194Z,2.13
2019-01-15T13:15:41.416Z,1.90
2019-01-15T13:18:28.906Z,1.97
2019-01-15T13:21:18.422Z,2.03
2019-01-15T13:24:10.766Z,2.00
2019-01-15T13:26:52.730Z,2.25
2019-01-15T13:29:59.934Z,2.20
2019-01-15T13:33:07.260Z,2.23
2019-01-15T13:35:55.329Z,2.00
2019-01-15T13:38:47.315Z,2.08
2019-01-15T13:41:36.780Z,2.03
2019-01-15T13:44:32.262Z,2.10
2019-01-15T13:47:19.775Z,2.00
2019-01-15T13:50:15.654Z,1.90
2019-01-15T13:53:13.978Z,2.30
2019-01-15T13:55:57.608Z,2.13
2019-01-15T13:58:56.697Z,1.90
2019-01-15T14:01:46.858Z,2.00
2019-01-15T14:04:42.597Z,2.00
2019-01-15T14:07:30.381Z,2.00
2019-01-15T14:10:18.439Z,1.90
2019-01-15T14:13:10.775Z,2.10
2019-01-15T14:16:09.587Z,2.10
2019-01-15T14:18:57.243Z,2.13
2019-01-15T14:21:45.298Z,2.70
2019-01-15T14:24:49.165Z,2.50
2019-01-15T14:27:37.079Z,2.67
2019-01-15T14:30:28.423Z,2.40
2019-01-15T14:33:16.427Z,2.40
2019-01-15T14:36:04.110Z,2.83
2019-01-15T14:38:53.638Z,2.70
2019-01-15T14:41:53.632Z,2.57
2019-01-15T14:44:41.551Z,2.50
2019-01-15T14:47:33.779Z,2.50
2019-01-15T14:50:24.159Z,2.83
2019-01-15T14:53:19.057Z,2.50
2019-01-15T14:56:08.622Z,2.63
2019-01-15T14:59:08.345Z,2.90
2019-01-15T15:01:51.946Z,2.60
2019-01-15T15:04:39.865Z,3.00
2019-01-15T15:07:27.975Z,2.50
2019-01-15T15:10:19.971Z,2.70
2019-01-15T15:13:06.806Z,2.97
2019-01-15T15:15:51.931Z,2.80
2019-01-15T15:18:41.470Z,2.90
2019-01-15T15:21:40.066Z,2.93
2019-01-15T15:24:38.709Z,2.60
2019-01-15T15:27:34.011Z,2.90
2019-01-15T15:30:24.537Z,2.83
2019-01-15T15:33:12.952Z,2.73
2019-01-15T15:35:56.388Z,2.67
2019-01-15T15:39:00.414Z,2.93
2019-01-15T15:41:49.521Z,2.73
2019-01-15T15:44:37.283Z,2.83
2019-01-15T15:47:33.172Z,2.73
2019-01-15T15:50:22.658Z,2.53
2019-01-15T15:53:12.522Z,2.90
2019-01-15T15:56:04.534Z,2.57
2019-01-15T15:59:11.894Z,2.97
2019-01-15T16:02:19.238Z,2.97
2019-01-15T16:05:20.440Z,2.83
2019-01-15T16:08:11.318Z,3.10
2019-01-15T16:11:11.071Z,2.80
2019-01-15T16:14:03.625Z,2.80
2019-01-15T16:16:53.027Z,2.77
2019-01-15T16:19:45.305Z,3.00
2019-01-15T16:22:29.967Z,2.63
2019-01-15T16:25:28.126Z,2.90
2019-01-15T16:28:06.755Z,2.83
2019-01-15T16:30:47.115Z,2.67
2019-01-15T16:33:36.506Z,2.90
2019-01-15T16:36:16.940Z,3.10
2019-01-15T16:39:04.234Z,2.60
2019-01-15T16:41:53.606Z,2.50
2019-01-15T16:44:45.841Z,3.00
2019-01-15T16:47:53.283Z,2.90
2019-01-15T16:50:45.727Z,2.90
2019-01-15T16:53:33.654Z,3.10
2019-01-15T16:56:38.530Z,2.90
2019-01-15T16:59:27.846Z,2.80
2019-01-15T17:02:24.364Z,2.90
2019-01-15T17:05:19.725Z,2.90
2019-01-15T17:07:59.796Z,2.80
2019-01-15T17:10:47.509Z,2.70
2019-01-15T17:13:30.574Z,3.00
2019-01-15T17:16:19.240Z,2.70
2019-01-15T17:19:07.037Z,3.00
2019-01-15T17:21:58.191Z,3.30
2019-01-15T17:25:02.616Z,3.00
2019-01-15T17:28:10.026Z,2.87
2019-01-15T17:30:57.801Z,3.20
2019-01-15T17:33:45.659Z,2.80
2019-01-15T17:36:38.034Z,2.80
2019-01-15T17:39:27.050Z,2.80
2019-01-15T17:42:16.705Z,2.53
2019-01-15T17:45:04.663Z,2.67
2019-01-15T17:47:54.189Z,2.80
2019-01-15T17:50:49.813Z,2.90
2019-01-15T17:53:42.350Z,2.93
2019-01-15T17:56:43.567Z,3.40
2019-01-15T17:59:44.767Z,3.07
2019-01-15T18:02:51.870Z,3.00
2019-01-15T18:05:50.408Z,2.80
2019-01-15T18:08:37.938Z,3.00
2019-01-15T18:11:41.650Z,2.97
2019-01-15T18:14:30.366Z,2.93
2019-01-15T18:17:18.639Z,2.93
2019-01-15T18:20:13.931Z,3.23
2019-01-15T18:23:11.313Z,3.03
2019-01-15T18:26:12.313Z,3.17
2019-01-15T18:29:00.186Z,3.13
2019-01-15T18:32:04.638Z,3.07
2019-01-15T18:34:57.554Z,3.17
2019-01-15T18:37:45.449Z,3.10
2019-01-15T18:40:49.991Z,3.10
2019-01-15T18:43:39.225Z,3.13
2019-01-15T18:46:27.203Z,3.10
2019-01-15T18:49:29.760Z,3.10
2019-01-15T18:52:37.362Z,3.30
2019-01-15T18:55:41.447Z,3.20
2019-01-15T18:58:26.672Z,3.40
2019-01-15T19:01:30.599Z,3.13
2019-01-15T19:04:19.108Z,3.30
2019-01-15T19:07:20.121Z,3.20
2019-01-15T19:10:15.463Z,3.30
2019-01-15T19:12:56.862Z,3.30
2019-01-15T19:15:49.097Z,3.30
2019-01-15T19:18:35.137Z,3.17
2019-01-15T19:21:15.964Z,3.20
2019-01-15T19:24:05.191Z,3.43
2019-01-15T19:26:51.297Z,3.30
2019-01-15T19:29:39.206Z,3.30
2019-01-15T19:32:37.567Z,3.13
2019-01-15T19:35:26.349Z,3.30
2019-01-15T19:38:24.675Z,2.97
2019-01-15T19:41:12.767Z,3.20
2019-01-15T19:44:02.372Z,3.00
2019-01-15T19:46:50.266Z,3.03
2019-01-15T19:49:38.130Z,3.10
2019-01-15T19:52:30.621Z,3.30
2019-01-15T19:55:13.720Z,3.00
2019-01-15T19:58:18.355Z,3.17
2019-01-15T20:01:08.168Z,3.00
2019-01-15T20:03:57.906Z,3.00
2019-01-15T20:06:46.204Z,3.13
2019-01-15T20:09:35.952Z,3.00
2019-01-15T20:12:37.825Z,3.03
2019-01-15T20:15:26.290Z,3.27
2019-01-15T20:18:14.040Z,3.13
2019-01-15T20:20:53.609Z,3.03
2019-01-15T20:23:54.997Z,3.50
2019-01-15T20:26:44.389Z,3.10
2019-01-15T20:29:33.474Z,3.40
2019-01-15T20:32:25.921Z,3.30
2019-01-15T20:35:10.764Z,3.30
2019-01-15T20:38:09.121Z,3.47
2019-01-15T20:40:56.827Z,3.30
2019-01-15T20:43:45.517Z,3.50
2019-01-15T20:46:37.906Z,3.60
2019-01-15T20:49:30.627Z,3.60
2019-01-15T20:52:30.824Z,3.70
2019-01-15T20:55:29.939Z,3.57
2019-01-15T20:58:13.058Z,3.57
2019-01-15T21:00:54.915Z,3.63
2019-01-15T21:03:53.113Z,3.60
2019-01-15T21:06:45.118Z,3.50
2019-01-15T21:09:33.156Z,3.73
2019-01-15T21:12:22.444Z,3.80
2019-01-15T21:15:10.627Z,4.10
2019-01-15T21:18:08.750Z,3.80
2019-01-15T21:20:56.594Z,4.20
2019-01-15T21:23:54.997Z,4.27
2019-01-15T21:26:44.201Z,4.00
2019-01-15T21:29:26.337Z,3.90
2019-01-15T21:32:18.623Z,4.03
2019-01-15T21:35:17.460Z,4.30
2019-01-15T21:38:09.983Z,4.20
2019-01-15T21:41:08.364Z,4.10
2019-01-15T21:44:12.847Z,4.20
2019-01-15T21:47:11.801Z,4.00
2019-01-15T21:49:59.976Z,4.40
2019-01-15T21:52:47.829Z,4.00
2019-01-15T21:55:35.916Z,4.03
2019-01-15T21:58:40.481Z,4.10
2019-01-15T22:01:30.991Z,4.17
2019-01-15T22:04:19.448Z,4.00
2019-01-15T22:07:27.050Z,4.00
2019-01-15T22:10:19.471Z,3.90
2019-01-15T22:12:57.795Z,4.00
2019-01-15T22:15:37.221Z,3.93
2019-01-15T22:18:20.121Z,4.10
2019-01-15T22:21:04.562Z,3.73
2019-01-15T22:23:52.395Z,3.93
2019-01-15T22:26:40.393Z,4.00
2019-01-15T22:29:19.980Z,3.80
2019-01-15T22:32:07.753Z,4.07
2019-01-15T22:35:03.097Z,3.60
2019-01-15T22:38:08.824Z,3.70
2019-01-15T22:41:01.149Z,3.80
2019-01-15T22:43:41.036Z,3.23
2019-01-15T22:46:28.826Z,3.80
2019-01-15T22:49:18.363Z,3.73
2019-01-15T22:52:06.396Z,3.50
2019-01-15T22:54:56.695Z,3.40
2019-01-15T22:58:04.712Z,3.40
2019-01-15T23:01:05.279Z,3.10
2019-01-15T23:04:05.286Z,3.30
2019-01-15T23:06:53.614Z,3.40
2019-01-15T23:09:41.790Z,3.43
2019-01-15T23:12:30.359Z,3.20
2019-01-15T23:15:32.052Z,3.10
2019-01-15T23:18:18.179Z,3.17
2019-01-15T23:21:07.943Z,3.30
2019-01-15T23:24:00.401Z,3.10
2019-01-15T23:26:48.600Z,3.20
2019-01-15T23:29:37.340Z,3.10
2019-01-15T23:32:38.988Z,2.93
2019-01-15T23:35:34.697Z,3.10
2019-01-15T23:38:24.687Z,2.93
2019-01-15T23:41:23.488Z,2.77
2019-01-15T23:44:05.448Z,2.90
2019-01-15T23:46:55.926Z,2.77
2019-01-15T23:49:35.679Z,2.93
2019-01-15T23:52:26.745Z,2.93
2019-01-15T23:55:16.411Z,2.80
2019-01-15T23:57:58.086Z,2.80
